createdAt,value
2022-11-03T00:00:49.845Z,1008.67
2022-11-03T00:01:50.137Z,1008.64
2022-11-03T00:02:50.219Z,1008.71
2022-11-03T00:03:51.256Z,1008.65
2022-11-03T00:04:50.747Z,1008.69
2022-11-03T00:05:50.777Z,1008.66
2022-11-03T00:06:50.935Z,1008.61
2022-11-03T00:07:51.070Z,1008.65
2022-11-03T00:08:51.218Z,1008.60
2022-11-03T00:09:51.369Z,1008.61
2022-11-03T00:10:51.535Z,1008.62
2022-11-03T00:11:52.244Z,1008.55
2022-11-03T00:12:52.766Z,1008.61
2022-11-03T00:13:52.738Z,1008.54
2022-11-03T00:14:52.751Z,1008.54
2022-11-03T00:15:52.376Z,1008.48
2022-11-03T00:16:52.580Z,1008.52
2022-11-03T00:17:52.748Z,1008.52
2022-11-03T00:18:52.906Z,1008.33
2022-11-03T00:19:53.133Z,1008.40
2022-11-03T00:20:53.303Z,1008.33
2022-11-03T00:21:54.243Z,1008.33
2022-11-03T00:22:54.242Z,1008.37
2022-11-03T00:23:54.746Z,1008.36
2022-11-03T00:24:53.911Z,1008.36
2022-11-03T00:25:54.040Z,1008.40
2022-11-03T00:26:55.243Z,1008.39
2022-11-03T00:27:55.287Z,1008.42
2022-11-03T00:28:54.756Z,1008.45
2022-11-03T00:29:54.920Z,1008.36
2022-11-03T00:30:55.072Z,1008.28
2022-11-03T00:31:55.228Z,1008.38
2022-11-03T00:32:55.388Z,1008.41
2022-11-03T00:33:55.539Z,1008.40
2022-11-03T00:34:55.761Z,1008.29
2022-11-03T00:35:55.905Z,1008.59
2022-11-03T00:36:56.063Z,1008.37
2022-11-03T00:37:56.190Z,1008.39
2022-11-03T00:38:56.333Z,1008.36
2022-11-03T00:39:56.500Z,1008.38
2022-11-03T00:40:56.652Z,1008.41
2022-11-03T00:41:56.796Z,1008.46
2022-11-03T00:42:56.959Z,1008.44
2022-11-03T00:43:57.114Z,1008.38
2022-11-03T00:44:57.273Z,1008.49
2022-11-03T00:45:57.413Z,1008.34
2022-11-03T00:46:57.533Z,1008.38
2022-11-03T00:47:57.664Z,1008.32
2022-11-03T00:48:57.837Z,1008.40
2022-11-03T00:49:58.003Z,1008.33
2022-11-03T00:50:58.163Z,1008.32
2022-11-03T00:51:58.390Z,1008.32
2022-11-03T00:52:58.636Z,1008.18
2022-11-03T00:53:59.757Z,1008.20
2022-11-03T00:54:58.983Z,1008.20
2022-11-03T00:55:59.115Z,1008.13
2022-11-03T00:56:59.762Z,1008.25
2022-11-03T00:57:59.513Z,1008.27
2022-11-03T00:58:59.619Z,1008.26
2022-11-03T01:00:00.288Z,1008.26
2022-11-03T01:01:00.136Z,1008.26
2022-11-03T01:02:00.367Z,1008.25
2022-11-03T01:03:00.424Z,1008.29
2022-11-03T01:04:00.567Z,1008.21
2022-11-03T01:05:00.691Z,1008.31
2022-11-03T01:06:01.752Z,1008.25
2022-11-03T01:07:01.265Z,1008.34
2022-11-03T01:08:01.765Z,1008.31
2022-11-03T01:09:02.253Z,1008.25
2022-11-03T01:10:02.275Z,1008.34
2022-11-03T01:11:01.674Z,1008.32
2022-11-03T01:12:01.847Z,1008.35
2022-11-03T01:13:02.011Z,1008.31
2022-11-03T01:14:02.160Z,1008.35
2022-11-03T01:15:02.315Z,1008.34
2022-11-03T01:16:02.465Z,1008.45
2022-11-03T01:17:02.651Z,1008.35
2022-11-03T01:18:02.826Z,1008.40
2022-11-03T01:19:03.756Z,1008.34
2022-11-03T01:20:03.152Z,1008.39
2022-11-03T01:21:03.300Z,1008.35
2022-11-03T01:22:06.496Z,1008.35
2022-11-03T01:23:05.977Z,1008.33
2022-11-03T01:24:03.898Z,1008.34
2022-11-03T01:25:04.087Z,1008.35
2022-11-03T01:26:04.242Z,1008.33
2022-11-03T01:27:05.258Z,1008.32
2022-11-03T01:29:05.760Z,1008.24
2022-11-03T01:30:06.757Z,1008.23
2022-11-03T01:31:05.105Z,1008.28
2022-11-03T01:32:05.270Z,1008.32
2022-11-03T01:33:05.758Z,1008.29
2022-11-03T01:34:05.538Z,1008.30
2022-11-03T01:35:05.676Z,1008.28
2022-11-03T01:36:05.814Z,1008.21
2022-11-03T01:37:05.958Z,1008.22
2022-11-03T01:38:06.110Z,1008.21
2022-11-03T01:39:06.251Z,1008.24
2022-11-03T01:40:07.260Z,1008.22
2022-11-03T01:41:06.513Z,1008.06
2022-11-03T01:42:06.676Z,1008.11
2022-11-03T01:43:07.121Z,1008.09
2022-11-03T01:44:07.295Z,1008.07
2022-11-03T01:45:07.179Z,1008.07
2022-11-03T01:46:07.315Z,1008.04
2022-11-03T01:47:08.259Z,1008.13
2022-11-03T01:48:07.626Z,1008.02
2022-11-03T01:49:08.271Z,1007.93
2022-11-03T01:50:07.906Z,1007.96
2022-11-03T01:51:08.031Z,1008.02
2022-11-03T01:52:08.766Z,1007.95
2022-11-03T01:53:08.794Z,1007.92
2022-11-03T01:54:08.639Z,1007.93
2022-11-03T01:55:08.807Z,1008.05
2022-11-03T01:56:08.929Z,1007.95
2022-11-03T01:57:09.747Z,1007.94
2022-11-03T01:58:10.765Z,1007.94
2022-11-03T01:59:09.379Z,1007.90
2022-11-03T02:00:09.514Z,1007.88
2022-11-03T02:01:09.855Z,1007.86
2022-11-03T02:02:09.945Z,1007.88
2022-11-03T02:03:10.070Z,1007.87
2022-11-03T02:04:10.117Z,1007.87
2022-11-03T02:05:10.352Z,1007.83
2022-11-03T02:06:10.776Z,1007.82
2022-11-03T02:07:10.780Z,1007.76
2022-11-03T02:08:11.805Z,1007.85
2022-11-03T02:09:11.774Z,1007.82
2022-11-03T02:10:11.138Z,1007.78
2022-11-03T02:11:11.275Z,1007.75
2022-11-03T02:12:11.424Z,1007.77
2022-11-03T02:13:12.284Z,1007.72
2022-11-03T02:14:12.768Z,1007.76
2022-11-03T02:15:12.772Z,1007.72
2022-11-03T02:16:12.130Z,1007.79
2022-11-03T02:17:12.281Z,1007.71
2022-11-03T02:18:12.442Z,1007.62
2022-11-03T02:19:12.590Z,1007.62
2022-11-03T02:20:12.741Z,1007.66
2022-11-03T02:21:12.876Z,1007.63
2022-11-03T02:22:14.032Z,1007.67
2022-11-03T02:23:13.282Z,1007.65
2022-11-03T02:24:13.418Z,1007.62
2022-11-03T02:25:13.533Z,1007.64
2022-11-03T02:26:13.776Z,1007.60
2022-11-03T02:27:13.919Z,1007.58
2022-11-03T02:28:14.067Z,1007.53
2022-11-03T02:29:14.774Z,1007.49
2022-11-03T02:30:14.387Z,1007.49
2022-11-03T02:31:14.508Z,1007.46
2022-11-03T02:32:14.633Z,1007.51
2022-11-03T02:33:15.281Z,1007.43
2022-11-03T02:34:14.914Z,1007.41
2022-11-03T02:35:15.076Z,1007.40
2022-11-03T02:36:15.221Z,1007.32
2022-11-03T02:37:15.367Z,1007.29
2022-11-03T02:38:15.530Z,1007.29
2022-11-03T02:39:15.693Z,1007.31
2022-11-03T02:40:15.839Z,1007.26
2022-11-03T02:41:15.978Z,1007.30
2022-11-03T02:42:16.780Z,1007.25
2022-11-03T02:43:16.295Z,1007.27
2022-11-03T02:44:16.789Z,1007.27
2022-11-03T02:45:17.615Z,1007.30
2022-11-03T02:46:16.921Z,1007.26
2022-11-03T02:47:17.780Z,1007.21
2022-11-03T02:48:17.271Z,1007.21
2022-11-03T02:49:17.415Z,1007.26
2022-11-03T02:50:17.528Z,1007.26
2022-11-03T02:51:17.687Z,1007.20
2022-11-03T02:52:18.838Z,1007.21
2022-11-03T02:53:17.999Z,1007.23
2022-11-03T02:54:18.121Z,1007.19
2022-11-03T02:55:18.274Z,1007.11
2022-11-03T02:56:18.792Z,1007.13
2022-11-03T02:57:18.586Z,1007.13
2022-11-03T02:58:18.723Z,1007.09
2022-11-03T02:59:18.872Z,1007.02
2022-11-03T03:00:19.788Z,1007.06
2022-11-03T03:01:19.480Z,1007.07
2022-11-03T03:02:19.449Z,1007.05
2022-11-03T03:03:20.284Z,1006.99
2022-11-03T03:04:20.293Z,1007.02
2022-11-03T03:05:19.909Z,1006.99
2022-11-03T03:06:20.053Z,1007.01
2022-11-03T03:07:20.803Z,1006.88
2022-11-03T03:08:21.292Z,1006.99
2022-11-03T03:09:20.684Z,1006.98
2022-11-03T03:10:20.840Z,1006.93
2022-11-03T03:11:20.981Z,1006.92
2022-11-03T03:12:22.115Z,1006.93
2022-11-03T03:13:21.354Z,1006.84
2022-11-03T03:14:21.480Z,1006.92
2022-11-03T03:15:22.286Z,1006.88
2022-11-03T03:16:21.756Z,1006.92
2022-11-03T03:17:21.877Z,1006.95
2022-11-03T03:18:22.035Z,1006.85
2022-11-03T03:19:22.162Z,1006.86
2022-11-03T03:20:22.283Z,1006.81
2022-11-03T03:21:22.518Z,1006.95
2022-11-03T03:22:23.284Z,1006.91
2022-11-03T03:23:22.803Z,1006.86
2022-11-03T03:24:22.954Z,1006.77
2022-11-03T03:25:23.074Z,1006.81
2022-11-03T03:26:23.198Z,1006.84
2022-11-03T03:27:23.443Z,1006.84
2022-11-03T03:28:23.580Z,1006.74
2022-11-03T03:29:23.756Z,1006.85
2022-11-03T03:30:23.890Z,1006.72
2022-11-03T03:31:24.823Z,1006.83
2022-11-03T03:32:24.787Z,1006.76
2022-11-03T03:33:24.351Z,1006.78
2022-11-03T03:34:34.585Z,1006.85
2022-11-03T03:35:26.533Z,1006.84
2022-11-03T03:36:24.747Z,1006.79
2022-11-03T03:37:24.906Z,1006.82
2022-11-03T03:38:25.060Z,1006.71
2022-11-03T03:39:25.198Z,1006.74
2022-11-03T03:40:26.334Z,1006.79
2022-11-03T03:41:25.582Z,1006.79
2022-11-03T03:42:25.719Z,1006.78
2022-11-03T03:43:25.852Z,1006.70
2022-11-03T03:44:25.992Z,1006.65
2022-11-03T03:45:26.127Z,1006.68
2022-11-03T03:46:26.291Z,1006.71
2022-11-03T03:47:26.446Z,1006.65
2022-11-03T03:48:26.559Z,1006.68
2022-11-03T03:49:27.804Z,1006.68
2022-11-03T03:50:26.921Z,1006.70
2022-11-03T03:51:27.065Z,1006.70
2022-11-03T03:52:27.795Z,1006.66
2022-11-03T03:53:27.448Z,1006.74
2022-11-03T03:54:27.607Z,1006.70
2022-11-03T03:55:28.300Z,1006.70
2022-11-03T03:56:27.913Z,1006.64
2022-11-03T03:57:28.053Z,1006.57
2022-11-03T03:58:28.195Z,1006.63
2022-11-03T03:59:28.336Z,1006.57
2022-11-03T04:00:28.444Z,1006.58
2022-11-03T04:01:29.489Z,1006.64
2022-11-03T04:02:29.937Z,1006.60
2022-11-03T04:03:28.939Z,1006.61
2022-11-03T04:04:29.088Z,1006.64
2022-11-03T04:05:29.211Z,1006.58
2022-11-03T04:06:29.332Z,1006.64
2022-11-03T04:07:29.574Z,1006.58
2022-11-03T04:08:29.786Z,1006.61
2022-11-03T04:09:30.047Z,1006.61
2022-11-03T04:10:30.150Z,1006.55
2022-11-03T04:11:30.381Z,1006.58
2022-11-03T04:12:30.611Z,1006.55
2022-11-03T04:13:30.831Z,1006.52
2022-11-03T04:14:30.973Z,1006.54
2022-11-03T04:15:31.089Z,1006.55
2022-11-03T04:16:31.346Z,1006.60
2022-11-03T04:17:31.449Z,1006.55
2022-11-03T04:18:31.665Z,1006.61
2022-11-03T04:19:31.881Z,1006.60
2022-11-03T04:20:32.116Z,1006.52
2022-11-03T04:21:32.359Z,1006.52
2022-11-03T04:22:32.599Z,1006.54
2022-11-03T04:23:32.699Z,1006.43
2022-11-03T04:24:33.801Z,1006.52
2022-11-03T04:25:33.029Z,1006.49
2022-11-03T04:26:34.176Z,1006.50
2022-11-03T04:27:34.419Z,1006.53
2022-11-03T04:28:34.301Z,1006.51
2022-11-03T04:29:33.758Z,1006.44
2022-11-03T04:30:34.804Z,1006.38
2022-11-03T04:31:34.051Z,1006.41
2022-11-03T04:32:34.205Z,1006.42
2022-11-03T04:33:35.306Z,1006.39
2022-11-03T04:34:34.509Z,1006.38
2022-11-03T04:35:35.664Z,1006.39
2022-11-03T04:36:35.305Z,1006.42
2022-11-03T04:38:08.503Z,1006.30
2022-11-03T04:38:35.851Z,1006.41
2022-11-03T04:39:35.898Z,1006.25
2022-11-03T04:40:35.542Z,1006.28
2022-11-03T04:41:35.744Z,1006.34
2022-11-03T04:42:35.907Z,1006.24
2022-11-03T04:43:36.843Z,1006.18
2022-11-03T04:44:36.237Z,1006.15
2022-11-03T04:45:36.439Z,1006.25
2022-11-03T04:46:36.600Z,1006.17
2022-11-03T04:47:37.340Z,1006.18
2022-11-03T04:48:36.988Z,1006.15
2022-11-03T04:49:37.169Z,1006.10
2022-11-03T04:50:38.612Z,1006.12
2022-11-03T04:51:37.522Z,1006.11
2022-11-03T04:52:37.698Z,1006.11
2022-11-03T04:53:37.889Z,1006.08
2022-11-03T04:54:38.043Z,1006.05
2022-11-03T04:55:38.192Z,1006.06
2022-11-03T04:56:38.357Z,1006.04
2022-11-03T04:57:38.519Z,1006.03
2022-11-03T04:58:38.860Z,1006.03
2022-11-03T04:59:38.882Z,1005.93
2022-11-03T05:00:39.122Z,1005.95
2022-11-03T05:01:39.422Z,1005.91
2022-11-03T05:02:40.350Z,1006.00
2022-11-03T05:03:39.706Z,1005.97
2022-11-03T05:04:39.820Z,1005.92
2022-11-03T05:05:39.950Z,1005.89
2022-11-03T05:06:40.186Z,1005.86
2022-11-03T05:07:40.427Z,1005.91
2022-11-03T05:08:40.865Z,1005.84
2022-11-03T05:09:43.010Z,1005.88
2022-11-03T05:10:41.931Z,1005.86
2022-11-03T05:11:41.130Z,1005.81
2022-11-03T05:12:41.255Z,1005.85
2022-11-03T05:13:41.487Z,1005.84
2022-11-03T05:14:41.753Z,1005.83
2022-11-03T05:15:41.870Z,1005.81
2022-11-03T05:16:42.102Z,1005.78
2022-11-03T05:17:42.854Z,1005.73
2022-11-03T05:18:42.507Z,1005.80
2022-11-03T05:19:42.739Z,1005.75
2022-11-03T05:20:42.856Z,1005.72
2022-11-03T05:21:43.109Z,1005.76
2022-11-03T05:22:43.214Z,1005.71
2022-11-03T05:23:43.442Z,1005.75
2022-11-03T05:24:44.357Z,1005.76
2022-11-03T05:25:43.721Z,1005.76
2022-11-03T05:26:43.967Z,1005.71
2022-11-03T05:27:44.885Z,1005.66
2022-11-03T05:28:44.350Z,1005.64
2022-11-03T05:29:44.611Z,1005.67
2022-11-03T05:30:44.706Z,1005.58
2022-11-03T05:31:44.937Z,1005.58
2022-11-03T05:32:45.044Z,1005.61
2022-11-03T05:33:45.271Z,1005.64
2022-11-03T05:34:45.393Z,1005.64
2022-11-03T05:35:45.635Z,1005.56
2022-11-03T05:36:45.868Z,1005.51
2022-11-03T05:37:46.862Z,1005.60
2022-11-03T05:38:46.227Z,1005.57
2022-11-03T05:39:46.375Z,1005.54
2022-11-03T05:40:46.614Z,1005.44
2022-11-03T05:41:46.871Z,1005.57
2022-11-03T05:42:47.857Z,1005.43
2022-11-03T05:43:47.855Z,1005.45
2022-11-03T05:44:47.216Z,1005.50
2022-11-03T05:45:47.338Z,1005.42
2022-11-03T05:46:47.487Z,1005.41
2022-11-03T05:47:47.610Z,1005.40
2022-11-03T05:48:47.873Z,1005.39
2022-11-03T05:49:47.881Z,1005.37
2022-11-03T05:50:48.009Z,1005.43
2022-11-03T05:51:48.861Z,1005.36
2022-11-03T05:52:48.861Z,1005.39
2022-11-03T05:53:48.616Z,1005.36
2022-11-03T05:54:48.734Z,1005.37
2022-11-03T05:55:48.859Z,1005.39
2022-11-03T05:56:49.070Z,1005.32
2022-11-03T05:57:49.214Z,1005.38
2022-11-03T05:58:49.373Z,1005.38
2022-11-03T05:59:49.516Z,1005.41
2022-11-03T06:00:50.365Z,1005.35
2022-11-03T06:01:49.981Z,1005.40
2022-11-03T06:02:50.125Z,1005.33
2022-11-03T06:03:50.868Z,1005.36
2022-11-03T06:04:50.495Z,1005.30
2022-11-03T06:05:52.372Z,1005.32
2022-11-03T06:06:50.863Z,1005.33
2022-11-03T06:07:51.009Z,1005.28
2022-11-03T06:08:51.162Z,1005.28
2022-11-03T06:09:51.365Z,1005.24
2022-11-03T06:10:51.501Z,1005.28
2022-11-03T06:11:52.364Z,1005.24
2022-11-03T06:12:52.363Z,1005.23
2022-11-03T06:13:51.986Z,1005.21
2022-11-03T06:14:52.136Z,1005.19
2022-11-03T06:15:52.869Z,1005.19
2022-11-03T06:16:52.472Z,1005.17
2022-11-03T06:17:53.652Z,1005.12
2022-11-03T06:18:53.370Z,1005.16
2022-11-03T06:19:52.969Z,1005.14
2022-11-03T06:20:53.866Z,1005.10
2022-11-03T06:21:53.895Z,1005.05
2022-11-03T06:22:53.888Z,1005.02
2022-11-03T06:23:54.379Z,1005.05
2022-11-03T06:24:54.871Z,1005.02
2022-11-03T06:25:54.107Z,1004.98
2022-11-03T06:26:54.249Z,1005.09
2022-11-03T06:27:54.391Z,1005.03
2022-11-03T06:28:54.534Z,1005.02
2022-11-03T06:29:55.677Z,1005.08
2022-11-03T06:30:54.910Z,1004.96
2022-11-03T06:31:55.067Z,1005.01
2022-11-03T06:32:55.225Z,1004.91
2022-11-03T06:33:55.877Z,1004.95
2022-11-03T06:34:55.538Z,1004.97
2022-11-03T06:35:55.680Z,1004.99
2022-11-03T06:36:56.367Z,1004.97
2022-11-03T06:37:57.879Z,1005.01
2022-11-03T06:38:56.875Z,1004.95
2022-11-03T06:39:56.880Z,1004.94
2022-11-03T06:40:56.619Z,1004.93
2022-11-03T06:41:56.769Z,1004.91
2022-11-03T06:42:57.873Z,1004.93
2022-11-03T06:43:57.105Z,1004.83
2022-11-03T06:44:57.254Z,1004.93
2022-11-03T06:45:57.886Z,1004.88
2022-11-03T06:46:57.512Z,1004.83
2022-11-03T06:47:58.373Z,1004.78
2022-11-03T06:48:57.896Z,1004.79
2022-11-03T06:49:58.019Z,1004.80
2022-11-03T06:50:58.175Z,1004.70
2022-11-03T06:51:58.328Z,1004.68
2022-11-03T06:52:58.496Z,1004.70
2022-11-03T06:53:58.670Z,1004.75
2022-11-03T06:54:58.833Z,1004.75
2022-11-03T06:55:59.018Z,1004.68
2022-11-03T06:56:59.188Z,1004.71
2022-11-03T06:57:59.871Z,1004.74
2022-11-03T06:59:01.380Z,1004.71
2022-11-03T07:00:13.255Z,1004.68
2022-11-03T07:01:03.768Z,1004.62
2022-11-03T07:02:01.207Z,1004.64
2022-11-03T07:03:00.265Z,1004.63
2022-11-03T07:04:00.397Z,1004.63
2022-11-03T07:05:01.372Z,1004.59
2022-11-03T07:06:01.735Z,1004.60
2022-11-03T07:07:01.388Z,1004.53
2022-11-03T07:08:01.879Z,1004.62
2022-11-03T07:09:01.247Z,1004.50
2022-11-03T07:10:01.410Z,1004.44
2022-11-03T07:11:01.537Z,1004.44
2022-11-03T07:12:01.686Z,1004.42
2022-11-03T07:13:06.924Z,1004.38
2022-11-03T07:14:03.887Z,1004.35
2022-11-03T07:15:02.160Z,1004.34
2022-11-03T07:16:02.897Z,1004.26
2022-11-03T07:17:02.909Z,1004.29
2022-11-03T07:18:03.574Z,1004.26
2022-11-03T07:19:03.383Z,1004.13
2022-11-03T07:20:03.910Z,1004.18
2022-11-03T07:21:03.134Z,1004.07
2022-11-03T07:22:03.393Z,1004.10
2022-11-03T07:23:04.382Z,1004.05
2022-11-03T07:24:03.740Z,1004.02
2022-11-03T07:25:03.923Z,1004.03
2022-11-03T07:26:04.057Z,1003.97
2022-11-03T07:27:04.882Z,1003.98
2022-11-03T07:28:05.363Z,1003.99
2022-11-03T07:29:04.626Z,1003.92
2022-11-03T07:30:04.877Z,1003.94
2022-11-03T07:31:05.886Z,1003.90
2022-11-03T07:32:05.223Z,1003.73
2022-11-03T07:33:05.456Z,1003.72
2022-11-03T07:34:06.580Z,1003.73
2022-11-03T07:35:05.795Z,1003.77
2022-11-03T07:36:15.463Z,1003.67
2022-11-03T07:37:08.958Z,1003.73
2022-11-03T07:38:06.709Z,1003.63
2022-11-03T07:39:06.505Z,1003.61
2022-11-03T07:40:07.388Z,1003.66
2022-11-03T07:41:06.858Z,1003.66
2022-11-03T07:42:08.101Z,1003.56
2022-11-03T07:43:07.900Z,1003.58
2022-11-03T07:44:07.519Z,1003.42
2022-11-03T07:45:07.646Z,1003.53
2022-11-03T07:46:08.392Z,1003.49
2022-11-03T07:47:08.907Z,1003.47
2022-11-03T07:48:08.291Z,1003.48
2022-11-03T07:49:08.328Z,1003.47
2022-11-03T07:50:08.485Z,1003.55
2022-11-03T07:51:08.664Z,1003.55
2022-11-03T07:52:08.824Z,1003.48
2022-11-03T07:53:09.888Z,1003.54
2022-11-03T07:54:09.125Z,1003.58
2022-11-03T07:55:09.889Z,1003.50
2022-11-03T07:56:09.577Z,1003.57
2022-11-03T07:57:09.765Z,1003.57
2022-11-03T07:58:10.394Z,1003.56
2022-11-03T07:59:10.089Z,1003.45
2022-11-03T08:00:10.837Z,1003.49
2022-11-03T08:01:10.640Z,1003.44
2022-11-03T08:02:11.045Z,1003.37
2022-11-03T08:03:10.848Z,1003.44
2022-11-03T08:04:10.975Z,1003.33
2022-11-03T08:05:11.184Z,1003.30
2022-11-03T08:06:14.567Z,1003.33
2022-11-03T08:07:11.519Z,1003.33
2022-11-03T08:08:11.660Z,1003.22
2022-11-03T08:09:11.800Z,1003.27
2022-11-03T08:10:11.977Z,1003.23
2022-11-03T08:12:12.895Z,1003.34
2022-11-03T08:13:12.561Z,1003.02
2022-11-03T08:14:12.772Z,1003.03
2022-11-03T08:15:12.940Z,1002.95
2022-11-03T08:16:13.119Z,1002.94
2022-11-03T08:17:13.895Z,1002.87
2022-11-03T08:18:13.538Z,1002.87
2022-11-03T08:19:13.719Z,1002.78
2022-11-03T08:20:14.397Z,1002.65
2022-11-03T08:21:14.908Z,1002.62
2022-11-03T08:22:14.167Z,1002.53
2022-11-03T08:23:30.498Z,1002.48
2022-11-03T08:24:16.515Z,1002.47
2022-11-03T08:25:15.400Z,1002.52
2022-11-03T08:26:14.895Z,1002.34
2022-11-03T08:27:15.046Z,1002.44
2022-11-03T08:28:15.216Z,1002.33
2022-11-03T08:29:15.927Z,1002.10
2022-11-03T08:30:15.536Z,1002.09
2022-11-03T08:31:15.669Z,1002.02
2022-11-03T08:32:17.400Z,1001.94
2022-11-03T08:33:16.042Z,1001.86
2022-11-03T08:34:16.231Z,1001.76
2022-11-03T08:35:16.405Z,1001.77
2022-11-03T08:36:16.544Z,1001.78
2022-11-03T08:37:16.694Z,1001.75
2022-11-03T08:38:16.826Z,1001.62
2022-11-03T08:39:16.991Z,1001.66
2022-11-03T08:40:17.158Z,1001.68
2022-11-03T08:41:17.325Z,1001.60
2022-11-03T08:42:17.914Z,1001.63
2022-11-03T08:43:18.411Z,1001.38
2022-11-03T08:44:18.406Z,1001.26
2022-11-03T08:45:17.956Z,1001.13
2022-11-03T08:46:18.575Z,1001.02
2022-11-03T08:47:18.327Z,1000.97
2022-11-03T08:48:18.471Z,1000.92
2022-11-03T08:49:18.654Z,1000.81
2022-11-03T08:50:19.406Z,1000.83
2022-11-03T08:51:18.956Z,1000.71
2022-11-03T08:52:19.124Z,1000.82
2022-11-03T08:53:19.308Z,1000.78
2022-11-03T08:54:20.409Z,1000.89
2022-11-03T08:55:19.671Z,1000.93
2022-11-03T08:56:22.436Z,1000.86
2022-11-03T08:57:20.029Z,1000.93
2022-11-03T08:58:20.441Z,1000.95
2022-11-03T08:59:20.300Z,1000.95
2022-11-03T09:00:21.409Z,1001.05
2022-11-03T09:01:20.793Z,1001.06
2022-11-03T09:02:21.000Z,1001.11
2022-11-03T09:03:21.231Z,1001.18
2022-11-03T09:04:21.953Z,1001.16
2022-11-03T09:05:22.411Z,1001.21
2022-11-03T09:06:21.755Z,1001.18
2022-11-03T09:07:21.901Z,1001.27
2022-11-03T09:10:28.514Z,1001.13
2022-11-03T09:11:23.584Z,1000.97
2022-11-03T09:12:22.818Z,1000.84
2022-11-03T09:13:22.952Z,1000.83
2022-11-03T09:14:23.090Z,1000.83
2022-11-03T09:15:23.331Z,1000.71
2022-11-03T09:16:24.410Z,1000.77
2022-11-03T09:17:23.648Z,1000.63
2022-11-03T09:18:23.786Z,1000.68
2022-11-03T09:19:24.430Z,1000.67
2022-11-03T09:20:24.045Z,1000.58
2022-11-03T09:21:24.173Z,1000.68
2022-11-03T09:22:24.320Z,1000.65
2022-11-03T09:23:24.424Z,1000.64
2022-11-03T09:24:24.927Z,1000.64
2022-11-03T09:25:24.695Z,1000.75
2022-11-03T09:26:25.417Z,1000.73
2022-11-03T09:27:25.023Z,1000.72
2022-11-03T09:28:25.156Z,1000.65
2022-11-03T09:29:25.429Z,1000.60
2022-11-03T09:30:25.423Z,1000.88
2022-11-03T09:31:25.565Z,1000.62
2022-11-03T09:32:26.427Z,1000.64
2022-11-03T09:33:25.901Z,1000.76
2022-11-03T09:34:26.058Z,1000.73
2022-11-03T09:35:26.224Z,1000.73
2022-11-03T09:36:26.926Z,1000.74
2022-11-03T09:37:26.538Z,1000.71
2022-11-03T09:38:26.672Z,1000.65
2022-11-03T09:39:26.855Z,1000.69
2022-11-03T09:40:27.035Z,1000.66
2022-11-03T09:41:53.946Z,1000.76
2022-11-03T09:42:29.441Z,1000.53
2022-11-03T09:43:27.521Z,1000.63
2022-11-03T09:44:27.657Z,1000.51
2022-11-03T09:45:28.449Z,1000.49
2022-11-03T09:46:27.949Z,1000.36
2022-11-03T09:47:28.922Z,1000.24
2022-11-03T09:48:28.931Z,999.99
2022-11-03T09:49:28.406Z,999.74
2022-11-03T09:50:29.431Z,999.57
2022-11-03T09:51:28.696Z,999.34
2022-11-03T09:52:28.861Z,999.18
2022-11-03T09:53:29.928Z,999.06
2022-11-03T09:54:29.187Z,998.92
2022-11-03T09:55:29.315Z,998.87
2022-11-03T09:56:29.463Z,998.82
2022-11-03T09:57:29.604Z,998.86
2022-11-03T09:58:29.741Z,998.85
2022-11-03T09:59:29.910Z,998.73
2022-11-03T10:00:30.932Z,998.86
2022-11-03T10:01:30.277Z,998.78
2022-11-03T10:02:30.491Z,998.89
2022-11-03T10:03:30.925Z,999.02
2022-11-03T10:04:30.647Z,999.08
2022-11-03T10:05:31.434Z,999.08
2022-11-03T10:06:30.987Z,999.18
2022-11-03T10:07:31.989Z,999.21
2022-11-03T10:08:31.927Z,999.26
2022-11-03T10:09:31.632Z,999.27
2022-11-03T10:10:31.780Z,999.32
2022-11-03T10:11:31.950Z,999.42
2022-11-03T10:12:32.125Z,999.33
2022-11-03T10:13:32.291Z,999.49
2022-11-03T10:14:32.455Z,999.43
2022-11-03T10:15:32.657Z,999.46
2022-11-03T10:16:32.808Z,999.43
2022-11-03T10:17:32.985Z,999.40
2022-11-03T10:18:33.114Z,999.41
2022-11-03T10:19:33.292Z,999.46
2022-11-03T10:20:34.443Z,999.53
2022-11-03T10:21:33.585Z,999.45
2022-11-03T10:22:38.461Z,999.62
2022-11-03T10:23:35.969Z,999.48
2022-11-03T10:24:34.195Z,999.50
2022-11-03T10:25:34.936Z,999.52
2022-11-03T10:26:34.584Z,999.61
2022-11-03T10:27:34.711Z,999.72
2022-11-03T10:28:34.856Z,999.56
2022-11-03T10:29:37.361Z,999.53
2022-11-03T10:30:51.194Z,999.57
2022-11-03T10:31:37.455Z,999.50
2022-11-03T10:32:35.412Z,999.56
2022-11-03T10:33:35.546Z,999.47
2022-11-03T10:34:35.683Z,999.62
2022-11-03T10:35:35.813Z,999.64
2022-11-03T10:36:35.954Z,999.61
2022-11-03T10:37:36.939Z,999.59
2022-11-03T10:38:36.315Z,999.42
2022-11-03T10:39:36.451Z,999.38
2022-11-03T10:40:49.176Z,999.16
2022-11-03T10:41:38.731Z,999.15
2022-11-03T10:42:36.967Z,998.98
2022-11-03T10:43:37.127Z,998.87
2022-11-03T10:44:37.975Z,998.92
2022-11-03T10:45:37.511Z,998.80
2022-11-03T10:46:50.675Z,998.75
2022-11-03T10:47:39.884Z,998.77
2022-11-03T10:48:38.094Z,998.77
2022-11-03T10:49:43.307Z,998.56
2022-11-03T10:50:40.446Z,998.53
2022-11-03T10:51:39.454Z,998.62
2022-11-03T10:52:39.448Z,998.52
2022-11-03T10:53:39.951Z,998.47
2022-11-03T10:54:39.455Z,998.51
2022-11-03T10:55:39.951Z,998.51
2022-11-03T10:56:39.959Z,998.49
2022-11-03T10:57:39.580Z,998.45
2022-11-03T10:58:39.746Z,998.45
2022-11-03T10:59:39.866Z,998.42
2022-11-03T11:00:40.096Z,998.39
2022-11-03T11:01:41.112Z,998.70
2022-11-03T11:02:40.536Z,998.36
2022-11-03T11:03:40.572Z,998.26
2022-11-03T11:04:40.778Z,998.35
2022-11-03T11:05:40.891Z,998.38
2022-11-03T11:06:41.946Z,998.38
2022-11-03T11:07:41.503Z,998.37
2022-11-03T11:08:41.951Z,998.41
2022-11-03T11:09:41.557Z,998.32
2022-11-03T11:10:41.725Z,998.40
2022-11-03T11:11:42.465Z,998.38
2022-11-03T11:12:42.096Z,998.44
2022-11-03T11:13:42.274Z,998.53
2022-11-03T11:14:42.425Z,998.54
2022-11-03T11:15:43.446Z,998.52
2022-11-03T11:16:43.448Z,998.48
2022-11-03T11:17:43.948Z,998.56
2022-11-03T11:18:43.223Z,998.54
2022-11-03T11:19:43.491Z,998.51
2022-11-03T11:20:43.545Z,998.43
2022-11-03T11:21:43.713Z,998.53
2022-11-03T11:22:43.905Z,998.50
2022-11-03T11:23:44.090Z,998.42
2022-11-03T11:24:44.261Z,998.47
2022-11-03T11:25:44.432Z,998.38
2022-11-03T11:26:44.583Z,998.33
2022-11-03T11:27:44.726Z,998.27
2022-11-03T11:28:44.889Z,998.10
2022-11-03T11:29:45.953Z,998.18
2022-11-03T11:30:45.247Z,998.02
2022-11-03T11:31:45.399Z,998.06
2022-11-03T11:32:46.469Z,997.96
2022-11-03T11:33:45.738Z,997.93
2022-11-03T11:34:45.904Z,998.01
2022-11-03T11:35:46.083Z,997.90
2022-11-03T11:36:46.974Z,997.93
2022-11-03T11:37:46.499Z,997.86
2022-11-03T11:38:46.638Z,997.81
2022-11-03T11:39:46.761Z,997.85
2022-11-03T11:40:46.912Z,997.84
2022-11-03T11:41:47.063Z,997.83
2022-11-03T11:42:47.245Z,997.85
2022-11-03T11:43:47.393Z,997.83
2022-11-03T11:44:47.537Z,997.79
2022-11-03T11:45:47.659Z,997.74
2022-11-03T11:46:47.811Z,997.64
2022-11-03T11:47:48.480Z,997.71
2022-11-03T11:48:48.116Z,997.65
2022-11-03T11:49:48.973Z,997.64
2022-11-03T11:50:49.502Z,997.65
2022-11-03T11:51:49.462Z,997.62
2022-11-03T11:52:48.832Z,997.56
2022-11-03T11:53:58.750Z,997.39
2022-11-03T11:54:50.094Z,997.48
2022-11-03T11:55:49.218Z,997.31
2022-11-03T11:56:49.473Z,997.33
2022-11-03T11:57:49.597Z,997.30
2022-11-03T11:58:49.986Z,997.16
2022-11-03T11:59:50.459Z,997.03
2022-11-03T12:00:51.964Z,996.98
2022-11-03T12:01:50.329Z,996.78
2022-11-03T12:02:50.492Z,996.49
2022-11-03T12:03:50.758Z,996.45
2022-11-03T12:04:50.824Z,996.28
2022-11-03T12:05:50.956Z,996.34
2022-11-03T12:06:51.118Z,996.10
2022-11-03T12:07:51.264Z,996.13
2022-11-03T12:08:51.394Z,995.94
2022-11-03T12:09:51.642Z,995.81
2022-11-03T12:10:51.808Z,995.74
2022-11-03T12:11:55.447Z,995.73
2022-11-03T12:12:53.259Z,995.73
2022-11-03T12:13:52.365Z,995.68
2022-11-03T12:14:52.480Z,995.65
2022-11-03T12:15:53.474Z,995.62
2022-11-03T12:16:53.024Z,995.53